PFEL

Details ICAO PFEL (ELI)
Name Elim
Region USA (Alaska)
Timezone America/Nome (UTC-8.0)
Plans Departing 2
Arriving 3
Stats Elevation 200 ft / 61 m (AMSL)
Location 64.614010° -162.270068°
Runways 1
Magnetic Variation 11.393° E
Sunrise 2018-05-24 12:59:33 UTC / 2018-05-24 04:59:33 Local
Sunset 2018-05-25 08:35:14 UTC / 2018-05-25 00:35:14 Local
Advertisement - Login to hide

Runways

ID Width Length Bearing (true) Bearing (mag) Surface Threshold Offset Overrun Length
01 59 ft / 18 m 3,003 ft / 915 m 29.00° 17.61° Gravel 0 ft / 0 m 0 ft / 0 m
19 59 ft / 18 m 3,003 ft / 915 m 209.00° 197.61° Gravel 0 ft / 0 m 0 ft / 0 m

Map

Weather


0- 5 10 15 20 25 30 35+ Temperature / ° C

Clouds and Precipitation
Forecast for 2018-05-25 06:00 UTC. Updated 36 minutes ago

Ground ~20,000 ft ~40,000 ft Winds

METAR

PFEL 250456Z AUTO 02008KT 10SM CLR 11/01 A2972 RMK AO2 SLP063 T01060011

TAF

Not found
Warning: Do not use this data for real-world aviation or navigation. No guarantee of current accuracy is given.